createdAt,value
2018-04-30T00:02:17.669Z,19.62
2018-04-30T00:04:45.879Z,19.61
2018-04-30T00:07:14.035Z,19.55
2018-04-30T00:09:42.201Z,19.53
2018-04-30T00:12:10.358Z,19.49
2018-04-30T00:14:38.524Z,19.45
2018-04-30T00:17:06.711Z,19.40
2018-04-30T00:19:34.862Z,19.39
2018-04-30T00:22:03.105Z,19.36
2018-04-30T00:24:31.259Z,19.34
2018-04-30T00:26:59.439Z,19.33
2018-04-30T00:29:27.618Z,19.33
2018-04-30T00:31:55.808Z,19.31
2018-04-30T00:34:23.947Z,19.29
2018-04-30T00:36:52.097Z,19.26
2018-04-30T00:39:20.273Z,19.21
2018-04-30T00:41:48.420Z,19.21
2018-04-30T00:44:16.566Z,19.20
2018-04-30T00:46:44.740Z,19.17
2018-04-30T00:49:12.904Z,19.10
2018-04-30T00:51:41.058Z,19.03
2018-04-30T00:54:10.364Z,18.96
2018-04-30T00:56:42.240Z,18.90
2018-04-30T00:59:17.950Z,18.82
2018-04-30T01:01:52.707Z,18.73
2018-04-30T01:04:20.889Z,18.66
2018-04-30T01:06:49.042Z,18.60
2018-04-30T01:09:23.276Z,18.53
2018-04-30T01:11:51.445Z,18.43
2018-04-30T01:14:19.608Z,18.36
2018-04-30T01:16:47.800Z,18.32
2018-04-30T01:19:15.942Z,18.28
2018-04-30T01:21:44.155Z,18.22
2018-04-30T01:24:12.307Z,18.18
2018-04-30T01:26:40.489Z,18.16
2018-04-30T01:29:08.658Z,18.13
2018-04-30T01:31:36.829Z,18.09
2018-04-30T01:34:04.983Z,18.04
2018-04-30T01:36:39.120Z,18.02
2018-04-30T01:39:07.275Z,17.81
2018-04-30T01:41:35.468Z,17.63
2018-04-30T01:44:03.632Z,17.56
2018-04-30T01:46:41.627Z,17.49
2018-04-30T01:49:09.790Z,17.34
2018-04-30T01:51:37.958Z,17.24
2018-04-30T01:54:06.150Z,17.14
2018-04-30T01:56:34.339Z,17.08
2018-04-30T01:59:02.501Z,17.03
2018-04-30T02:01:30.683Z,16.99
2018-04-30T02:03:59.578Z,16.95
2018-04-30T02:06:27.751Z,16.92
2018-04-30T02:08:55.905Z,16.88
2018-04-30T02:11:24.076Z,16.84
2018-04-30T02:13:53.047Z,16.82
2018-04-30T02:16:23.031Z,16.76
2018-04-30T02:18:51.198Z,16.73
2018-04-30T02:21:19.394Z,16.71
2018-04-30T02:23:47.552Z,16.66
2018-04-30T02:26:18.857Z,16.63
2018-04-30T02:28:47.029Z,16.63
2018-04-30T02:31:15.178Z,16.61
2018-04-30T02:33:53.149Z,16.58
2018-04-30T02:36:21.296Z,16.51
2018-04-30T02:38:49.471Z,16.51
2018-04-30T02:41:17.623Z,16.49
2018-04-30T02:43:45.773Z,16.48
2018-04-30T02:46:13.941Z,16.46
2018-04-30T02:48:42.100Z,16.44
2018-04-30T02:51:10.227Z,16.40
2018-04-30T02:53:38.391Z,16.37
2018-04-30T02:56:06.552Z,16.31
2018-04-30T02:58:34.693Z,16.23
2018-04-30T03:01:02.875Z,16.12
2018-04-30T03:03:31.064Z,16.06
2018-04-30T03:05:59.245Z,16.04
2018-04-30T03:08:27.385Z,16.03
2018-04-30T03:11:02.158Z,16.02
2018-04-30T03:13:30.280Z,15.97
2018-04-30T03:15:58.499Z,15.95
2018-04-30T03:18:26.670Z,15.93
2018-04-30T03:20:55.555Z,15.92
2018-04-30T03:23:23.734Z,15.89
2018-04-30T03:25:51.895Z,15.89
2018-04-30T03:28:20.073Z,15.88
2018-04-30T03:30:48.221Z,15.81
2018-04-30T03:33:22.841Z,15.74
2018-04-30T03:35:51.012Z,15.68
2018-04-30T03:38:19.145Z,15.55
2018-04-30T03:40:47.343Z,15.30
2018-04-30T03:43:15.489Z,15.33
2018-04-30T03:45:43.663Z,15.53
2018-04-30T03:48:11.801Z,15.77
2018-04-30T03:50:40.030Z,16.01
2018-04-30T03:53:16.480Z,16.15
2018-04-30T03:55:44.637Z,16.24
2018-04-30T03:58:12.778Z,16.27
2018-04-30T04:00:52.775Z,16.31
2018-04-30T04:03:33.318Z,16.32
2018-04-30T04:06:21.703Z,16.31
2018-04-30T04:08:49.899Z,16.45
2018-04-30T04:11:18.080Z,16.65
2018-04-30T04:13:46.218Z,16.86
2018-04-30T04:16:29.051Z,17.06
2018-04-30T04:18:57.766Z,17.07
2018-04-30T04:21:25.931Z,16.97
2018-04-30T04:23:54.229Z,16.82
2018-04-30T04:26:22.379Z,16.63
2018-04-30T04:28:50.650Z,16.47
2018-04-30T04:31:33.537Z,16.36
2018-04-30T04:34:01.703Z,16.25
2018-04-30T04:36:29.849Z,16.20
2018-04-30T04:38:58.024Z,16.17
2018-04-30T04:41:26.168Z,16.09
2018-04-30T04:43:56.010Z,16.07
2018-04-30T04:46:24.182Z,16.04
2018-04-30T04:48:52.353Z,16.00
2018-04-30T04:51:24.293Z,15.91
2018-04-30T04:53:52.459Z,15.88
2018-04-30T04:56:20.592Z,15.80
2018-04-30T04:58:48.747Z,15.81
2018-04-30T05:01:16.912Z,15.73
2018-04-30T05:03:48.213Z,15.66
2018-04-30T05:06:16.405Z,15.65
2018-04-30T05:08:44.677Z,15.56
2018-04-30T05:11:12.848Z,15.50
2018-04-30T05:13:40.986Z,15.48
2018-04-30T05:16:10.112Z,15.52
2018-04-30T05:18:38.318Z,15.51
2018-04-30T05:21:10.215Z,15.52
2018-04-30T05:23:38.383Z,15.50
2018-04-30T05:26:12.895Z,15.53
2018-04-30T05:28:41.099Z,15.53
2018-04-30T05:31:09.255Z,15.47
2018-04-30T05:33:37.421Z,15.47
2018-04-30T05:36:05.611Z,15.49
2018-04-30T05:38:39.772Z,15.49
2018-04-30T05:41:07.898Z,15.53
2018-04-30T05:43:36.054Z,15.53
2018-04-30T05:46:04.263Z,15.59
2018-04-30T05:48:32.391Z,15.58
2018-04-30T05:51:00.532Z,15.54
2018-04-30T05:53:28.697Z,15.51
2018-04-30T05:55:56.844Z,15.48
2018-04-30T05:58:25.012Z,15.38
2018-04-30T06:00:53.164Z,15.36
2018-04-30T06:03:21.327Z,15.29
2018-04-30T06:05:49.473Z,15.19
2018-04-30T06:08:17.633Z,15.22
2018-04-30T06:10:45.787Z,15.21
2018-04-30T06:13:33.618Z,15.16
2018-04-30T06:16:01.764Z,15.05
2018-04-30T06:18:29.939Z,14.90
2018-04-30T06:20:58.102Z,14.81
2018-04-30T06:23:26.314Z,14.68
2018-04-30T06:25:54.491Z,14.48
2018-04-30T06:28:22.642Z,14.34
2018-04-30T06:30:50.832Z,14.29
2018-04-30T06:33:18.997Z,14.19
2018-04-30T06:35:47.207Z,14.14
2018-04-30T06:38:15.312Z,14.13
2018-04-30T06:40:43.461Z,14.16
2018-04-30T06:43:12.899Z,14.07
2018-04-30T06:45:41.182Z,13.82
2018-04-30T06:48:09.383Z,13.66
2018-04-30T06:50:52.349Z,13.54
2018-04-30T06:53:20.526Z,13.52
2018-04-30T06:55:48.678Z,13.57
2018-04-30T06:58:16.841Z,13.50
2018-04-30T07:00:45.021Z,13.50
2018-04-30T07:03:13.166Z,13.55
2018-04-30T07:05:41.363Z,13.60
2018-04-30T07:08:17.308Z,13.66
2018-04-30T07:10:45.484Z,13.85
2018-04-30T07:13:13.652Z,13.90
2018-04-30T07:15:41.818Z,13.92
2018-04-30T07:18:20.447Z,13.85
2018-04-30T07:20:48.648Z,13.89
2018-04-30T07:23:18.429Z,13.90
2018-04-30T07:25:46.550Z,13.89
2018-04-30T07:28:14.720Z,13.83
2018-04-30T07:30:42.873Z,13.82
2018-04-30T07:33:11.130Z,13.86
2018-04-30T07:35:39.980Z,13.90
2018-04-30T07:38:08.137Z,13.89
2018-04-30T07:40:36.284Z,13.93
2018-04-30T07:43:04.421Z,13.92
2018-04-30T07:45:33.010Z,13.91
2018-04-30T07:48:01.148Z,13.77
2018-04-30T07:50:29.307Z,13.73
2018-04-30T08:02:29.392Z,13.77
2018-04-30T08:04:57.574Z,13.86
2018-04-30T08:07:25.718Z,13.93
2018-04-30T08:09:53.996Z,14.04
2018-04-30T08:12:22.195Z,14.17
2018-04-30T08:14:50.343Z,14.27
2018-04-30T08:17:18.506Z,14.34
2018-04-30T10:05:49.852Z,16.39
2018-04-30T10:08:18.025Z,16.35
2018-04-30T10:10:46.217Z,16.46
2018-04-30T10:13:14.424Z,16.20
2018-04-30T10:15:42.638Z,16.28
2018-04-30T10:18:11.106Z,16.49
2018-04-30T10:33:21.027Z,17.41
2018-04-30T10:35:50.799Z,17.35
2018-04-30T10:38:19.697Z,17.48
2018-04-30T10:40:47.843Z,17.51
2018-04-30T10:43:17.230Z,17.39
2018-04-30T10:45:45.452Z,17.19
2018-04-30T10:48:13.563Z,17.22
2018-04-30T10:50:41.745Z,17.31
2018-04-30T10:53:13.582Z,17.41
2018-04-30T10:55:41.729Z,17.37
2018-04-30T10:58:10.365Z,17.43
2018-04-30T11:00:38.537Z,17.44
2018-04-30T11:03:06.687Z,17.38
2018-04-30T11:05:41.153Z,17.34
2018-04-30T11:08:09.312Z,17.41
2018-04-30T11:10:37.439Z,17.67
2018-04-30T11:13:05.606Z,17.91
2018-04-30T11:15:33.734Z,17.78
2018-04-30T11:18:08.317Z,17.75
2018-04-30T11:20:36.472Z,17.79
2018-04-30T11:23:04.708Z,18.00
2018-04-30T11:25:32.885Z,17.98
2018-04-30T11:28:01.346Z,17.81
2018-04-30T11:30:29.508Z,18.00
2018-04-30T11:32:57.662Z,18.22
2018-04-30T11:35:31.703Z,18.30
2018-04-30T11:37:59.868Z,18.24
2018-04-30T11:40:34.475Z,18.27
2018-04-30T11:43:02.634Z,18.48
2018-04-30T11:45:30.837Z,18.69
2018-04-30T11:47:58.988Z,18.64
2018-04-30T11:50:27.170Z,18.57
2018-04-30T11:52:55.357Z,18.67
2018-04-30T11:55:23.556Z,18.73
2018-04-30T11:57:51.732Z,18.76
2018-04-30T12:00:19.888Z,18.78
2018-04-30T12:02:48.052Z,18.94
2018-04-30T12:05:16.208Z,19.17
2018-04-30T12:07:44.353Z,19.15
2018-04-30T12:10:15.633Z,19.36
2018-04-30T12:12:43.796Z,19.54
2018-04-30T12:15:12.464Z,19.48
2018-04-30T12:17:40.607Z,19.49
2018-04-30T12:20:08.801Z,19.81
2018-04-30T12:22:49.708Z,19.87
2018-04-30T12:25:17.904Z,19.89
2018-04-30T12:27:46.056Z,19.86
2018-04-30T12:30:14.348Z,20.00
2018-04-30T12:32:43.426Z,20.22
2018-04-30T12:35:24.919Z,20.35
2018-04-30T12:37:53.080Z,20.35
2018-04-30T12:40:21.223Z,20.37
2018-04-30T12:42:49.386Z,20.29
2018-04-30T12:45:27.818Z,20.23
2018-04-30T12:47:55.988Z,20.17
2018-04-30T12:50:24.143Z,20.09
2018-04-30T12:52:52.318Z,20.11
2018-04-30T12:55:20.502Z,20.21
2018-04-30T12:57:48.695Z,20.40
2018-04-30T13:00:16.868Z,20.50
2018-04-30T13:02:45.483Z,20.61
2018-04-30T13:05:13.676Z,20.78
2018-04-30T13:07:41.839Z,20.89
2018-04-30T13:10:13.095Z,20.88
2018-04-30T13:12:44.424Z,20.65
2018-04-30T13:15:12.635Z,20.77
2018-04-30T13:17:40.776Z,20.86
2018-04-30T13:20:22.765Z,20.86
2018-04-30T13:22:50.912Z,20.75
2018-04-30T13:25:19.064Z,20.39
2018-04-30T13:27:47.673Z,20.25
2018-04-30T13:30:15.857Z,20.59
2018-04-30T13:32:44.043Z,20.79
2018-04-30T13:35:15.417Z,21.01
2018-04-30T13:37:43.585Z,21.43
2018-04-30T13:40:11.737Z,21.84
2018-04-30T13:42:39.875Z,21.82
2018-04-30T13:45:08.036Z,21.58
2018-04-30T13:47:36.198Z,21.52
2018-04-30T13:50:04.369Z,21.51
2018-04-30T13:52:32.515Z,21.17
2018-04-30T13:55:00.690Z,21.03
2018-04-30T13:57:28.827Z,21.01
2018-04-30T13:59:57.028Z,20.89
2018-04-30T14:02:31.421Z,20.94
2018-04-30T14:04:59.650Z,21.04
2018-04-30T14:07:27.811Z,20.87
2018-04-30T14:09:55.971Z,20.65
2018-04-30T14:12:30.393Z,20.70
2018-04-30T14:14:58.555Z,20.60
2018-04-30T14:17:29.713Z,20.60
2018-04-30T14:19:57.847Z,20.82
2018-04-30T14:22:26.041Z,20.92
2018-04-30T14:24:54.189Z,21.09
2018-04-30T14:27:22.359Z,21.30
2018-04-30T14:29:50.517Z,21.15
2018-04-30T14:32:18.683Z,21.36
2018-04-30T14:34:46.848Z,22.11
2018-04-30T14:37:15.005Z,22.02
2018-04-30T14:39:43.177Z,22.48
2018-04-30T14:42:11.307Z,22.97
2018-04-30T14:44:39.524Z,23.28
2018-04-30T14:47:07.678Z,23.40
2018-04-30T14:49:35.835Z,23.83
2018-04-30T14:52:03.990Z,24.20
2018-04-30T14:54:32.145Z,24.62
2018-04-30T14:57:00.311Z,24.93
2018-04-30T14:59:28.455Z,25.04
2018-04-30T15:01:56.627Z,24.76
2018-04-30T15:04:24.827Z,24.83
2018-04-30T15:06:56.173Z,25.06
2018-04-30T15:09:24.329Z,24.96
2018-04-30T15:11:52.482Z,24.91
2018-04-30T15:14:22.297Z,25.04
2018-04-30T15:16:50.435Z,25.49
2018-04-30T15:19:18.636Z,25.14
2018-04-30T15:21:46.787Z,25.39
2018-04-30T15:24:28.686Z,25.26
2018-04-30T15:26:56.849Z,25.01
2018-04-30T15:29:35.228Z,24.90
2018-04-30T15:32:03.397Z,24.99
2018-04-30T15:34:35.252Z,25.10
2018-04-30T15:37:03.421Z,25.06
2018-04-30T15:39:31.554Z,25.25
2018-04-30T15:41:59.771Z,25.14
2018-04-30T15:44:40.566Z,25.15
2018-04-30T15:47:08.642Z,25.27
2018-04-30T15:49:36.793Z,25.27
2018-04-30T15:52:04.973Z,25.23
2018-04-30T15:54:33.131Z,25.18
2018-04-30T15:57:13.929Z,25.02
2018-04-30T15:59:48.286Z,24.74
2018-04-30T16:02:16.453Z,24.52
2018-04-30T16:04:44.601Z,24.15
2018-04-30T16:07:13.026Z,24.23
2018-04-30T16:09:41.158Z,24.19
2018-04-30T16:12:09.314Z,23.98
2018-04-30T16:14:37.500Z,23.69
2018-04-30T16:17:05.654Z,23.31
2018-04-30T16:19:33.795Z,22.83
2018-04-30T16:22:01.985Z,22.51
2018-04-30T16:24:30.155Z,22.26
2018-04-30T16:26:58.295Z,22.27
2018-04-30T16:29:26.452Z,22.20
2018-04-30T16:31:54.598Z,21.95
2018-04-30T16:34:25.522Z,21.78
2018-04-30T16:36:53.660Z,21.57
2018-04-30T16:39:21.812Z,21.22
2018-04-30T16:41:49.986Z,20.84
2018-04-30T16:44:27.838Z,20.79
2018-04-30T16:46:56.004Z,20.83
2018-04-30T16:49:24.150Z,20.84
2018-04-30T16:51:52.326Z,20.70
2018-04-30T16:54:20.482Z,20.60
2018-04-30T16:56:48.638Z,20.57
2018-04-30T16:59:16.780Z,20.55
2018-04-30T17:01:44.930Z,20.40
2018-04-30T17:04:13.126Z,20.37
2018-04-30T17:06:41.266Z,20.29
2018-04-30T17:09:09.460Z,20.19
2018-04-30T17:11:38.503Z,20.10
2018-04-30T17:14:06.667Z,20.04
2018-04-30T17:16:34.826Z,20.00
2018-04-30T17:19:02.984Z,19.95
2018-04-30T17:21:31.149Z,19.88
2018-04-30T17:24:01.924Z,19.82
2018-04-30T17:26:32.491Z,19.78
2018-04-30T17:29:00.630Z,19.72
2018-04-30T17:31:28.811Z,19.63
2018-04-30T17:33:59.049Z,19.53
2018-04-30T17:36:27.248Z,19.46
2018-04-30T17:38:55.378Z,19.44
2018-04-30T17:41:23.532Z,19.36
2018-04-30T17:43:51.688Z,19.25
2018-04-30T17:46:19.835Z,19.23
2018-04-30T17:48:47.985Z,19.22
2018-04-30T17:51:16.156Z,19.18
2018-04-30T17:53:44.339Z,19.14
2018-04-30T17:56:12.472Z,19.09
2018-04-30T17:58:40.722Z,19.03
2018-04-30T18:03:41.980Z,18.80
2018-04-30T18:06:10.903Z,18.71
2018-04-30T18:08:39.054Z,18.57
2018-04-30T18:11:08.066Z,18.28
2018-04-30T18:13:36.195Z,18.19
2018-04-30T18:16:04.400Z,18.09
2018-04-30T18:18:32.578Z,17.98
2018-04-30T18:21:00.742Z,17.86
2018-04-30T18:23:28.891Z,17.79
2018-04-30T18:25:57.063Z,17.67
2018-04-30T18:28:29.341Z,17.42
2018-04-30T18:30:58.804Z,17.13
2018-04-30T18:33:26.967Z,17.01
2018-04-30T18:35:55.114Z,16.81
2018-04-30T18:38:23.289Z,16.66
2018-04-30T18:40:51.433Z,16.55
2018-04-30T18:43:19.604Z,16.50
2018-04-30T18:45:47.787Z,16.50
2018-04-30T18:48:15.953Z,16.51
2018-04-30T18:50:44.129Z,16.45
2018-04-30T18:53:12.550Z,16.43
2018-04-30T18:55:40.712Z,16.47
2018-04-30T18:58:08.851Z,16.44
2018-04-30T19:00:37.072Z,16.45
2018-04-30T19:03:05.223Z,16.49
2018-04-30T19:05:33.409Z,16.44
2018-04-30T19:08:01.715Z,16.37
2018-04-30T19:10:37.394Z,16.21
2018-04-30T19:13:05.609Z,16.07
2018-04-30T19:15:33.732Z,15.95
2018-04-30T19:18:01.958Z,15.84
2018-04-30T19:20:30.102Z,15.68
2018-04-30T19:22:58.286Z,15.55
2018-04-30T19:25:26.430Z,15.51
2018-04-30T19:27:54.737Z,15.52
2018-04-30T19:30:22.903Z,15.50
2018-04-30T19:32:51.064Z,15.46
2018-04-30T19:35:19.236Z,15.36
2018-04-30T19:37:47.386Z,15.17
2018-04-30T19:40:16.966Z,15.14
2018-04-30T19:42:45.136Z,15.19
2018-04-30T19:45:20.343Z,15.16
2018-04-30T19:47:48.469Z,15.16
2018-04-30T19:50:19.761Z,15.19
2018-04-30T19:52:47.917Z,15.20
2018-04-30T19:55:16.098Z,15.14
2018-04-30T19:57:44.244Z,15.14
2018-04-30T20:00:12.425Z,15.19
2018-04-30T20:02:40.576Z,15.18
2018-04-30T20:05:08.745Z,15.19
2018-04-30T20:07:36.934Z,15.13
2018-04-30T20:10:05.087Z,15.10
2018-04-30T20:12:33.262Z,15.06
2018-04-30T20:15:01.415Z,14.98
2018-04-30T20:17:29.635Z,14.99
2018-04-30T20:19:57.786Z,15.04
2018-04-30T20:22:25.967Z,14.99
2018-04-30T20:24:55.279Z,14.88
2018-04-30T20:27:23.420Z,14.80
2018-04-30T20:29:51.669Z,14.65
2018-04-30T20:32:19.810Z,14.56
2018-04-30T20:34:48.028Z,14.57
2018-04-30T20:37:19.966Z,14.62
2018-04-30T20:39:48.168Z,14.64
2018-04-30T20:42:19.808Z,14.65
2018-04-30T20:44:47.953Z,14.59
2018-04-30T20:47:16.186Z,14.58
2018-04-30T20:49:44.392Z,14.60
2018-04-30T20:52:12.550Z,14.57
2018-04-30T20:54:40.705Z,14.61
2018-04-30T20:57:08.855Z,14.65
2018-04-30T20:59:36.996Z,14.69
2018-04-30T21:02:05.173Z,14.71
2018-04-30T21:04:33.313Z,14.75
2018-04-30T21:07:01.505Z,14.75
2018-04-30T21:09:29.648Z,14.71
2018-04-30T21:11:57.780Z,14.68
2018-04-30T21:14:25.970Z,14.65
2018-04-30T21:16:54.143Z,14.63
2018-04-30T21:19:22.307Z,14.61
2018-04-30T21:21:50.462Z,14.50
2018-04-30T21:24:19.807Z,14.33
2018-04-30T21:26:47.890Z,14.33
2018-04-30T21:29:17.103Z,14.38
2018-04-30T21:31:45.236Z,14.40
2018-04-30T21:34:13.401Z,14.44
2018-04-30T21:36:41.571Z,14.45
2018-04-30T21:39:09.716Z,14.44
2018-04-30T21:41:43.810Z,14.42
2018-04-30T21:44:11.947Z,14.39
2018-04-30T21:46:40.207Z,14.34
2018-04-30T21:49:08.353Z,14.25
2018-04-30T21:51:38.328Z,14.20
2018-04-30T21:54:06.500Z,14.15
2018-04-30T21:56:34.647Z,14.12
2018-04-30T21:59:02.815Z,14.04
2018-04-30T22:01:30.947Z,14.01
2018-04-30T22:03:59.140Z,13.97
2018-04-30T22:06:27.275Z,13.92
2018-04-30T22:08:55.454Z,13.91
2018-04-30T22:11:23.596Z,13.94
2018-04-30T22:13:53.596Z,13.94
2018-04-30T22:16:21.778Z,13.92
2018-04-30T22:18:53.769Z,13.91
2018-04-30T22:21:21.939Z,13.93
2018-04-30T22:23:50.101Z,13.86
2018-04-30T22:26:18.357Z,13.83
2018-04-30T22:28:46.499Z,13.77
2018-04-30T22:31:14.683Z,13.79
2018-04-30T22:33:42.962Z,13.83
2018-04-30T22:36:11.121Z,13.83
2018-04-30T22:38:39.290Z,13.79
2018-04-30T22:41:07.416Z,13.84
2018-04-30T22:43:35.578Z,13.84
2018-04-30T22:46:03.728Z,13.79
2018-04-30T22:48:32.294Z,13.76
2018-04-30T22:51:00.449Z,13.73
2018-04-30T22:53:28.615Z,13.72
2018-04-30T22:55:56.771Z,13.73
2018-04-30T22:58:24.925Z,13.69
2018-04-30T23:00:53.101Z,13.67
2018-04-30T23:03:21.237Z,13.69
2018-04-30T23:05:49.428Z,13.65
2018-04-30T23:08:17.574Z,13.61
2018-04-30T23:10:45.761Z,13.55
2018-04-30T23:13:13.919Z,13.57
2018-04-30T23:15:42.070Z,13.57
2018-04-30T23:18:10.263Z,13.56
2018-04-30T23:23:16.890Z,13.59
2018-04-30T23:25:45.038Z,13.62
2018-04-30T23:28:13.206Z,13.63
2018-04-30T23:30:41.360Z,13.64
2018-04-30T23:33:12.875Z,13.65
2018-04-30T23:35:41.046Z,13.62
2018-04-30T23:38:09.197Z,13.54
2018-04-30T23:40:37.365Z,13.45
2018-04-30T23:43:05.532Z,13.47
2018-04-30T23:45:33.706Z,13.48
2018-04-30T23:48:01.866Z,13.48
2018-04-30T23:50:30.004Z,13.51
2018-04-30T23:52:59.116Z,13.52
2018-04-30T23:55:27.308Z,13.53
2018-04-30T23:57:58.430Z,13.53
